Time;durP1;ratioP1;P1;durP2;ratioP2;P2;SDS_P1;SDS_P2;PMS_P1;PMS_P2;Temp;Humidity;BMP_temperature;BMP_pressure;BME280_temperature;BME280_humidity;BME280_pressure;Samples;Min_cycle;Max_cycle;Signal;HPM_P1;HPM_P2
2022/07/14 00:02:17;;;;;;;;;;;;;;;15.46;100.00;-25502.16;5073414;28;20433;-81
2022/07/14 00:04:47;;;;;;;;;;;;;;;15.41;100.00;-25500.84;5073658;28;19973;-81
2022/07/14 00:07:12;;;;;;;;;;;;;;;15.43;100.00;-25501.28;5059547;28;20173;-81
2022/07/14 00:09:37;;;;;;;;;;;;;;;15.46;100.00;-25502.00;5070440;28;20413;-82
2022/07/14 00:12:03;;;;;;;;;;;;;;;15.54;100.00;-25504.34;5072980;28;20011;-81
2022/07/14 00:14:30;;;;;;;;;;;;;;;15.44;100.00;-25501.72;5074192;28;19916;-81
2022/07/14 00:16:55;;;;;;;;;;;;;;;15.49;100.00;-25502.88;5060795;28;19958;-80
2022/07/14 00:19:20;;;;;;;;;;;;;;;15.47;100.00;-25502.44;5067928;28;19912;-81
2022/07/14 00:21:46;;;;;;;;;;;;;;;15.46;100.00;-25502.00;5061096;28;19912;-81
2022/07/14 00:24:23;;;;;;;;;;;;;;;15.37;100.00;-25499.53;5072412;28;19916;-81
2022/07/14 00:26:49;;;;;;;;;;;;;;;15.39;100.00;-25500.25;5061319;28;19920;-83
2022/07/14 00:29:14;;;;;;;;;;;;;;;15.39;100.00;-25500.13;5053481;28;20273;-80
2022/07/14 00:31:39;;;;;;;;;;;;;;;15.40;100.00;-25500.41;5053153;28;19917;-80
2022/07/14 00:34:10;;;;;;;;;;;;;;;15.32;100.00;-25498.22;5067588;28;19943;-80
2022/07/14 00:36:35;;;;;;;;;;;;;;;15.25;100.00;-25496.19;5072144;28;19967;-80
2022/07/14 00:39:01;;;;;;;;;;;;;;;15.18;100.00;-25494.16;5060540;28;20431;-81
2022/07/14 00:41:26;;;;;;;;;;;;;;;15.12;100.00;-25492.56;5055437;28;19940;-81
2022/07/14 00:44:00;;;;;;;;;;;;;;;15.04;100.00;-25490.38;5052506;28;19913;-81
2022/07/14 00:46:26;;;;;;;;;;;;;;;15.07;100.00;-25491.25;5053048;28;20001;-81
2022/07/14 00:48:51;;;;;;;;;;;;;;;15.02;100.00;-25489.78;5053941;28;19956;-81
2022/07/14 00:51:16;;;;;;;;;;;;;;;14.94;100.00;-25487.47;5053277;28;19992;-80
2022/07/14 00:53:42;;;;;;;;;;;;;;;14.97;100.00;-25488.34;5056537;28;20376;-84
2022/07/14 00:56:07;;;;;;;;;;;;;;;15.09;100.00;-25491.69;5076233;28;19985;-83
2022/07/14 00:58:33;;;;;;;;;;;;;;;14.98;100.00;-25488.63;5072579;28;19935;-82
2022/07/14 01:00:59;;;;;;;;;;;;;;;14.94;100.00;-25487.47;5060495;28;19917;-83
2022/07/14 01:03:28;;;;;;;;;;;;;;;14.89;100.00;-25486.16;5061837;28;19919;-83
2022/07/14 01:05:53;;;;;;;;;;;;;;;14.93;100.00;-25487.03;5059201;28;19916;-84
2022/07/14 01:08:19;;;;;;;;;;;;;;;14.87;100.00;-25485.56;5069710;28;19919;-84
2022/07/14 01:10:45;;;;;;;;;;;;;;;14.93;100.00;-25487.03;5066001;28;19970;-83
2022/07/14 01:13:15;;;;;;;;;;;;;;;14.70;100.00;-25480.75;5079135;28;19962;-84
2022/07/14 01:15:40;;;;;;;;;;;;;;;14.55;100.00;-25476.53;5041609;28;19913;-84
2022/07/14 01:18:05;;;;;;;;;;;;;;;14.53;100.00;-25475.94;5050975;28;19912;-81
2022/07/14 01:20:31;;;;;;;;;;;;;;;14.60;100.00;-25477.69;5079663;28;19912;-82
2022/07/14 01:22:57;;;;;;;;;;;;;;;14.48;100.00;-25474.34;5074784;28;20009;-83
2022/07/14 01:25:22;;;;;;;;;;;;;;;14.43;100.00;-25472.91;5075214;28;19916;-81
2022/07/14 01:27:49;;;;;;;;;;;;;;;14.54;100.00;-25476.09;5055242;28;19927;-81
2022/07/14 01:30:14;;;;;;;;;;;;;;;14.57;100.00;-25476.97;5062765;28;19916;-81
2022/07/14 01:32:42;;;;;;;;;;;;;;;14.57;100.00;-25476.81;5074028;28;19970;-81
2022/07/14 01:35:07;;;;;;;;;;;;;;;14.45;100.00;-25473.63;5075235;28;20426;-80
2022/07/14 01:37:32;;;;;;;;;;;;;;;14.39;100.00;-25471.88;5074544;28;19912;-82
2022/07/14 01:39:58;;;;;;;;;;;;;;;14.35;100.00;-25470.72;5073976;28;20372;-81
2022/07/14 01:42:23;;;;;;;;;;;;;;;14.26;100.00;-25468.22;5075054;28;19916;-81
2022/07/14 01:44:48;;;;;;;;;;;;;;;14.31;100.00;-25469.69;5055583;28;19909;-82
2022/07/14 01:47:14;;;;;;;;;;;;;;;14.29;100.00;-25469.09;5056302;28;19995;-82
2022/07/14 01:49:39;;;;;;;;;;;;;;;14.24;100.00;-25467.66;5055653;28;19912;-82
2022/07/14 01:52:06;;;;;;;;;;;;;;;14.23;100.00;-25467.34;5063267;28;19915;-82
2022/07/14 01:54:38;;;;;;;;;;;;;;;14.28;100.00;-25468.81;5071107;28;20009;-83
2022/07/14 01:57:06;;;;;;;;;;;;;;;14.26;100.00;-25468.22;5052939;28;19932;-81
2022/07/14 01:59:33;;;;;;;;;;;;;;;14.15;100.00;-25465.16;5071647;28;19912;-81
2022/07/14 02:01:58;;;;;;;;;;;;;;;14.10;100.00;-25463.56;5054894;28;19920;-82
2022/07/14 02:04:26;;;;;;;;;;;;;;;14.20;100.00;-25466.47;5055144;28;19913;-81
2022/07/14 02:06:52;;;;;;;;;;;;;;;14.14;100.00;-25464.72;5070346;28;19917;-81
2022/07/14 02:09:18;;;;;;;;;;;;;;;14.04;100.00;-25461.81;5055339;28;19920;-81
2022/07/14 02:14:30;;;;;;;;;;;;;;;13.97;100.00;-25459.91;5073382;28;20025;-81
2022/07/14 02:16:55;;;;;;;;;;;;;;;13.99;100.00;-25460.66;5071718;28;21676;-81
2022/07/14 02:19:24;;;;;;;;;;;;;;;13.98;100.00;-25460.34;5074173;28;19947;-81
2022/07/14 02:21:49;;;;;;;;;;;;;;;13.98;100.00;-25460.34;5061764;28;19924;-82
2022/07/14 02:24:22;;;;;;;;;;;;;;;14.09;100.00;-25463.28;5070144;28;19920;-82
2022/07/14 02:26:50;;;;;;;;;;;;;;;14.11;100.00;-25464.00;5052070;28;20324;-81
2022/07/14 02:29:15;;;;;;;;;;;;;;;14.06;100.00;-25462.41;5054212;28;19931;-82
2022/07/14 02:31:44;;;;;;;;;;;;;;;14.02;100.00;-25461.22;5066008;28;19916;-81
2022/07/14 02:34:12;;;;;;;;;;;;;;;13.96;100.00;-25459.63;5090863;28;19991;-82
2022/07/14 02:36:37;;;;;;;;;;;;;;;13.87;100.00;-25457.00;5060577;28;19916;-84
2022/07/14 02:39:05;;;;;;;;;;;;;;;13.88;100.00;-25457.44;5057214;28;19912;-82
2022/07/14 02:41:30;;;;;;;;;;;;;;;13.89;100.00;-25457.59;5056745;28;19920;-82
2022/07/14 02:43:55;;;;;;;;;;;;;;;13.94;100.00;-25459.03;5056983;28;20045;-83
2022/07/14 02:46:21;;;;;;;;;;;;;;;13.91;100.00;-25458.31;5062131;28;20265;-82
2022/07/14 02:48:46;;;;;;;;;;;;;;;13.75;100.00;-25453.78;5076615;28;19916;-82
2022/07/14 02:51:12;;;;;;;;;;;;;;;13.67;100.00;-25451.47;5077276;28;20440;-82
2022/07/14 02:53:38;;;;;;;;;;;;;;;13.73;100.00;-25453.06;5079485;28;19912;-82
2022/07/14 02:56:04;;;;;;;;;;;;;;;13.72;100.00;-25452.91;5067891;28;19912;-82
2022/07/14 02:58:29;;;;;;;;;;;;;;;13.67;100.00;-25451.47;5072927;28;19916;-82
2022/07/14 03:00:55;;;;;;;;;;;;;;;13.56;100.00;-25448.25;5082722;28;19916;-82
2022/07/14 03:03:22;;;;;;;;;;;;;;;13.65;100.00;-25450.88;5082937;28;20375;-82
2022/07/14 03:05:47;;;;;;;;;;;;;;;13.67;100.00;-25451.31;5076404;28;19919;-82
2022/07/14 03:08:12;;;;;;;;;;;;;;;13.62;100.00;-25450.16;5068942;28;19920;-82
2022/07/14 03:10:38;;;;;;;;;;;;;;;13.55;100.00;-25448.09;5085098;28;19920;-82
2022/07/14 03:13:07;;;;;;;;;;;;;;;13.50;100.00;-25446.66;5097980;28;19919;-81
2022/07/14 03:15:32;;;;;;;;;;;;;;;13.49;100.00;-25446.34;5076509;28;19912;-82
2022/07/14 03:17:57;;;;;;;;;;;;;;;13.39;100.00;-25443.44;5076820;28;20508;-81
2022/07/14 03:20:23;;;;;;;;;;;;;;;13.35;100.00;-25442.41;5093133;28;19947;-81
2022/07/14 03:22:53;;;;;;;;;;;;;;;13.33;100.00;-25441.81;5069748;28;20359;-81
2022/07/14 03:25:19;;;;;;;;;;;;;;;13.36;100.00;-25442.56;5074883;28;19998;-81
2022/07/14 03:27:46;;;;;;;;;;;;;;;13.38;100.00;-25443.28;5065345;28;20011;-81
2022/07/14 03:30:12;;;;;;;;;;;;;;;13.34;100.00;-25441.97;5094024;28;19951;-81
2022/07/14 03:32:41;;;;;;;;;;;;;;;13.32;100.00;-25441.53;5055492;28;19947;-81
2022/07/14 03:35:07;;;;;;;;;;;;;;;13.31;100.00;-25441.09;5056060;28;19916;-81
2022/07/14 03:37:36;;;;;;;;;;;;;;;13.28;100.00;-25440.34;5073844;28;19912;-82
2022/07/14 03:40:02;;;;;;;;;;;;;;;13.34;100.00;-25442.13;5056309;28;19912;-81
2022/07/14 03:42:28;;;;;;;;;;;;;;;13.38;100.00;-25443.16;5061296;28;19912;-82
2022/07/14 03:44:58;;;;;;;;;;;;;;;13.31;100.00;-25441.09;5074701;28;19915;-82
2022/07/14 03:47:23;;;;;;;;;;;;;;;13.33;100.00;-25441.81;5077895;28;19955;-81
2022/07/14 03:49:48;;;;;;;;;;;;;;;13.41;100.00;-25444.03;5081910;28;19908;-82
2022/07/14 03:52:17;;;;;;;;;;;;;;;13.38;100.00;-25443.28;5106728;28;19923;-82
2022/07/14 03:54:44;;;;;;;;;;;;;;;13.45;100.00;-25445.19;5085232;28;19916;-81
2022/07/14 03:57:11;;;;;;;;;;;;;;;13.50;100.00;-25446.66;5107533;28;19912;-83
2022/07/14 03:59:48;;;;;;;;;;;;;;;13.50;100.00;-25446.66;5096649;28;19901;-82
2022/07/14 04:02:13;;;;;;;;;;;;;;;13.51;100.00;-25446.94;5086558;28;19923;-81
2022/07/14 04:04:41;;;;;;;;;;;;;;;13.53;100.00;-25447.38;5064101;28;20269;-82
2022/07/14 04:07:07;;;;;;;;;;;;;;;13.59;100.00;-25449.28;5082313;28;19920;-84
2022/07/14 04:09:32;;;;;;;;;;;;;;;13.65;100.00;-25451.03;5083290;28;20308;-82
2022/07/14 04:12:01;;;;;;;;;;;;;;;13.79;100.00;-25454.81;5085012;28;19965;-82
2022/07/14 04:14:26;;;;;;;;;;;;;;;14.32;100.00;-25469.97;5072242;22;19921;-82
2022/07/14 04:16:52;;;;;;;;;;;;;;;15.17;100.00;-25494.00;5056975;28;20379;-82
2022/07/14 04:19:18;;;;;;;;;;;;;;;16.27;100.00;-25525.13;5037955;28;20016;-83
2022/07/14 04:21:43;;;;;;;;;;;;;;;16.67;100.00;-25536.31;5042311;28;19909;-83
2022/07/14 04:24:10;;;;;;;;;;;;;;;17.50;100.00;-25559.81;5037237;28;19913;-82
2022/07/14 04:26:37;;;;;;;;;;;;;;;17.67;100.00;-25564.59;5037761;28;19924;-82
2022/07/14 04:29:06;;;;;;;;;;;;;;;17.66;100.00;-16309.91;5036483;28;20400;-83
2022/07/14 04:31:31;;;;;;;;;;;;;;;17.84;100.00;-1723.50;5019820;28;19923;-82
2022/07/14 04:33:58;;;;;;;;;;;;;;;18.08;100.00;16933.72;5054654;28;20289;-83
2022/07/14 04:36:24;;;;;;;;;;;;;;;19.09;100.00;42138.91;5044957;28;20664;-82
2022/07/14 04:38:49;;;;;;;;;;;;;;;19.80;100.00;86589.91;5018856;28;20144;-82
2022/07/14 04:41:17;;;;;;;;;;;;;;;19.99;100.00;147749.47;5038764;28;20036;-82
2022/07/14 04:43:42;;;;;;;;;;;;;;;20.27;100.00;147819.91;5056857;28;19913;-82
2022/07/14 04:46:08;;;;;;;;;;;;;;;20.53;100.00;147883.97;5039170;28;19909;-82
2022/07/14 04:52:01;;;;;;;;;;;;;;;20.90;100.00;147976.28;5055464;28;20283;-82
2022/07/14 04:54:03;;;;;;;;;;;;;;;21.30;100.00;148076.22;5036575;28;19920;-82
2022/07/14 04:56:29;;;;;;;;;;;;;;;21.47;100.00;148118.53;5035263;28;19913;-82
2022/07/14 04:58:54;;;;;;;;;;;;;;;21.36;100.00;148090.34;5038767;28;19920;-82
2022/07/14 05:01:19;;;;;;;;;;;;;;;21.50;100.00;148126.28;5042330;28;20381;-82
2022/07/14 05:04:18;;;;;;;;;;;;;;;22.17;100.00;148294.28;5041644;28;20359;-82
2022/07/14 05:06:46;;;;;;;;;;;;;;;20.82;100.00;147957.06;5002954;28;19917;-81
2022/07/14 05:09:11;;;;;;;;;;;;;;;21.26;100.00;148066.00;5027791;28;20319;-82
2022/07/14 05:11:43;;;;;;;;;;;;;;;21.95;100.00;148237.84;5037477;28;20035;-81
2022/07/14 05:14:08;;;;;;;;;;;;;;;21.26;100.00;148067.28;5036292;28;19963;-81
2022/07/14 05:16:33;;;;;;;;;;;;;;;21.31;100.00;148080.06;5042288;28;19963;-80
2022/07/14 05:19:02;;;;;;;;;;;;;;;21.88;100.00;148221.19;5020792;28;19917;-80
2022/07/14 05:21:27;;;;;;;;;;;;;;;20.95;100.00;147990.34;5024543;28;20396;-80
2022/07/14 05:23:52;;;;;;;;;;;;;;;20.15;100.00;147789.16;5041794;28;19913;-80
2022/07/14 05:26:18;;;;;;;;;;;;;;;19.97;100.00;147745.63;5059729;28;19948;-81
2022/07/14 05:28:44;;;;;;;;;;;;;;;19.23;100.00;147559.91;5040091;28;20318;-81
2022/07/14 05:31:09;;;;;;;;;;;;;;;17.99;100.00;147251.50;5056640;28;19939;-81
2022/07/14 05:33:35;;;;;;;;;;;;;;;17.97;100.00;147246.41;5038952;28;19924;-81
2022/07/14 05:36:01;;;;;;;;;;;;;;;18.30;100.00;147330.84;5023029;28;19917;-80
2022/07/14 05:38:27;;;;;;;;;;;;;;;18.19;100.00;147301.41;5022260;28;19913;-81
2022/07/14 05:40:52;;;;;;;;;;;;;;;18.06;100.00;147270.69;5037307;28;20056;-81
2022/07/14 05:43:19;;;;;;;;;;;;;;;18.06;100.00;147269.44;5032090;28;19917;-80
2022/07/14 05:45:44;;;;;;;;;;;;;;;18.24;100.00;147315.47;5040976;28;19920;-80
2022/07/14 05:48:10;;;;;;;;;;;;;;;18.24;100.00;147315.47;5027409;28;19936;-81
2022/07/14 05:50:36;;;;;;;;;;;;;;;18.02;100.00;147259.19;5044401;28;19916;-81
2022/07/14 05:53:02;;;;;;;;;;;;;;;17.69;100.00;147178.56;5054089;28;19917;-81
2022/07/14 05:55:27;;;;;;;;;;;;;;;17.34;100.00;147091.66;5033937;28;20333;-81
2022/07/14 05:57:53;;;;;;;;;;;;;;;17.22;100.00;147060.97;5020358;28;20338;-80
2022/07/14 06:00:19;;;;;;;;;;;;;;;17.11;100.00;147034.13;5039914;28;19917;-82
2022/07/14 06:02:44;;;;;;;;;;;;;;;17.16;100.00;147046.88;5019986;28;19940;-82
2022/07/14 06:05:10;;;;;;;;;;;;;;;17.40;100.00;147105.69;5044848;28;19924;-81
2022/07/14 06:07:36;;;;;;;;;;;;;;;17.57;100.00;147147.88;5023891;28;20527;-80
2022/07/14 06:10:02;;;;;;;;;;;;;;;17.75;100.00;147192.66;5030238;28;19923;-81
2022/07/14 06:12:27;;;;;;;;;;;;;;;18.01;100.00;147256.66;5040880;28;19931;-80
2022/07/14 06:14:53;;;;;;;;;;;;;;;18.04;100.00;147265.59;5032202;28;19991;-81
2022/07/14 06:17:18;;;;;;;;;;;;;;;18.19;100.00;147301.41;5038783;28;19920;-81
2022/07/14 06:19:43;;;;;;;;;;;;;;;18.10;100.00;147279.63;5041312;28;19912;-79
2022/07/14 06:22:09;;;;;;;;;;;;;;;18.06;100.00;147269.44;5041355;28;19917;-80
2022/07/14 06:24:41;;;;;;;;;;;;;;;17.89;100.00;147228.47;5035366;28;20373;-81
2022/07/14 06:27:07;;;;;;;;;;;;;;;17.81;100.00;147208.00;5017266;28;19920;-80
2022/07/14 06:29:32;;;;;;;;;;;;;;;17.63;100.00;147161.94;5033858;28;19913;-80
2022/07/14 06:31:58;;;;;;;;;;;;;;;17.55;100.00;147144.03;5016868;28;19955;-81
2022/07/14 06:34:24;;;;;;;;;;;;;;;18.04;100.00;147265.59;5016537;28;20408;-80
2022/07/14 06:36:50;;;;;;;;;;;;;;;17.97;100.00;147246.41;5016689;28;19917;-80
2022/07/14 06:39:16;;;;;;;;;;;;;;;18.01;100.00;147256.66;5034514;28;19916;-81
2022/07/14 06:41:41;;;;;;;;;;;;;;;17.88;100.00;147224.59;5015058;28;20483;-81
2022/07/14 06:44:07;;;;;;;;;;;;;;;17.64;100.00;147165.78;5013655;28;19913;-82
2022/07/14 06:46:32;;;;;;;;;;;;;;;17.70;100.00;147181.13;5016201;28;20439;-80
2022/07/14 06:48:58;;;;;;;;;;;;;;;17.85;100.00;147218.25;5016650;28;19913;-81
2022/07/14 06:51:24;;;;;;;;;;;;;;;17.88;100.00;147225.97;5016793;28;19962;-80
2022/07/14 06:53:53;;;;;;;;;;;;;;;17.91;100.00;147233.63;5015544;28;19944;-81
2022/07/14 06:56:19;;;;;;;;;;;;;;;18.17;100.00;147296.28;5016684;28;19960;-81
2022/07/14 06:58:44;;;;;;;;;;;;;;;17.99;100.00;147251.50;5015968;28;19913;-81
2022/07/14 07:01:11;;;;;;;;;;;;;;;18.40;100.00;147353.84;5034109;28;20015;-81
2022/07/14 07:03:39;;;;;;;;;;;;;;;18.67;100.00;147421.63;5032067;28;20403;-80
2022/07/14 07:08:51;;;;;;;;;;;;;;;19.19;100.00;147550.97;5032864;28;19919;-81
2022/07/14 07:11:17;;;;;;;;;;;;;;;19.37;100.00;147595.75;5048333;28;19917;-80
2022/07/14 07:13:46;;;;;;;;;;;;;;;20.05;100.00;147766.09;5030229;28;19971;-81
2022/07/14 07:16:11;;;;;;;;;;;;;;;21.32;100.00;148082.66;4996985;28;19921;-82
2022/07/14 07:18:37;;;;;;;;;;;;;;;22.18;100.00;148295.56;4998161;28;19914;-81
2022/07/14 07:21:03;;;;;;;;;;;;;;;22.87;100.00;148467.50;4996945;28;19951;-80
2022/07/14 07:23:46;;;;;;;;;;;;;;;22.88;100.00;148470.09;4998815;28;20297;-81
2022/07/14 07:26:11;;;;;;;;;;;;;;;21.33;100.00;148083.91;5021026;28;19924;-81
2022/07/14 07:28:36;;;;;;;;;;;;;;;22.27;100.00;148318.66;5016412;28;19921;-81
2022/07/14 07:31:01;;;;;;;;;;;;;;;23.57;100.00;148643.41;5014506;28;19914;-81
2022/07/14 07:33:28;;;;;;;;;;;;;;;24.23;100.00;148807.81;5003020;28;20376;-81
2022/07/14 07:35:53;;;;;;;;;;;;;;;24.45;100.00;148863.03;5017180;28;19962;-82
2022/07/14 07:38:18;;;;;;;;;;;;;;;23.06;100.00;148515.03;5019233;28;19986;-80
2022/07/14 07:40:44;;;;;;;;;;;;;;;23.30;100.00;148576.69;5017428;28;19916;-81
2022/07/14 07:43:13;;;;;;;;;;;;;;;23.04;100.00;148509.84;5016379;28;19920;-81
2022/07/14 07:45:38;;;;;;;;;;;;;;;22.27;100.00;148318.66;5016101;28;19920;-82
2022/07/14 07:48:04;;;;;;;;;;;;;;;21.87;100.00;148219.88;5036514;28;19917;-80
2022/07/14 07:50:30;;;;;;;;;;;;;;;22.63;100.00;148407.22;5016355;28;19936;-82
2022/07/14 07:52:55;;;;;;;;;;;;;;;23.24;100.00;148561.28;5018068;28;20350;-82
2022/07/14 07:55:21;;;;;;;;;;;;;;;23.21;100.00;148552.25;5019305;28;19928;-82
2022/07/14 07:57:47;;;;;;;;;;;;;;;22.82;100.00;148455.94;5021997;28;19999;-81
2022/07/14 08:00:13;;;;;;;;;;;;;;;23.86;100.00;148714.06;5020790;28;19955;-80
2022/07/14 08:03:01;;;;;;;;;;;;;;;24.85;100.00;148963.31;5038197;28;19920;-80
2022/07/14 08:05:27;;;;;;;;;;;;;;;23.97;100.00;148742.31;5016367;28;19913;-81
2022/07/14 08:07:52;;;;;;;;;;;;;;;23.66;100.00;148665.22;5036275;28;20281;-81
2022/07/14 08:10:18;;;;;;;;;;;;;;;23.78;100.00;148694.75;5027671;28;19913;-79
2022/07/14 08:12:44;;;;;;;;;;;;;;;24.92;100.00;148980.00;5022806;28;19919;-81
2022/07/14 08:15:10;;;;;;;;;;;;;;;24.01;100.00;148752.59;5034846;28;20011;-81
2022/07/14 08:17:36;;;;;;;;;;;;;;;24.83;100.00;148958.16;5018154;28;20376;-81
2022/07/14 08:20:01;;;;;;;;;;;;;;;25.15;100.00;149037.81;5037193;28;19917;-82
2022/07/14 08:22:27;;;;;;;;;;;;;;;24.77;100.00;148941.50;5035000;28;20346;-82
2022/07/14 08:24:53;;;;;;;;;;;;;;;25.35;100.00;149088.00;5018559;28;19935;-81
2022/07/14 08:27:18;;;;;;;;;;;;;;;25.71;100.00;149176.69;5019056;28;20346;-80
2022/07/14 08:29:43;;;;;;;;;;;;;;;24.73;100.00;148933.78;5018100;28;19923;-82
2022/07/14 08:32:10;;;;;;;;;;;;;;;24.07;100.00;148768.00;5036206;28;19913;-81
2022/07/14 08:34:35;;;;;;;;;;;;;;;24.55;100.00;148888.75;5037069;28;19949;-81
2022/07/14 08:37:01;;;;;;;;;;;;;;;24.76;100.00;148938.91;5021067;28;19924;-81
2022/07/14 08:39:26;;;;;;;;;;;;;;;25.43;100.00;149108.59;5039335;28;19913;-81
2022/07/14 08:41:54;;;;;;;;;;;;;;;24.87;100.00;148968.41;5019975;28;19920;-81
2022/07/14 08:44:21;;;;;;;;;;;;;;;25.80;100.00;149201.09;5036171;28;19913;-81
2022/07/14 08:46:46;;;;;;;;;;;;;;;25.84;100.00;149210.13;5038881;28;20392;-81
2022/07/14 08:49:12;;;;;;;;;;;;;;;25.66;100.00;149163.84;5036517;28;19913;-82
2022/07/14 08:51:38;;;;;;;;;;;;;;;25.26;100.00;149066.13;5019261;28;19969;-81
2022/07/14 08:54:05;;;;;;;;;;;;;;;25.88;100.00;149219.13;5037118;28;20284;-81
2022/07/14 08:56:30;;;;;;;;;;;;;;;25.64;100.00;149160.00;5037179;28;20010;-82
2022/07/14 08:58:56;;;;;;;;;;;;;;;26.11;100.00;149278.31;5025651;28;19913;-81
2022/07/14 09:01:21;;;;;;;;;;;;;;;25.63;100.00;149158.69;5022643;28;19996;-82
2022/07/14 09:03:47;;;;;;;;;;;;;;;25.60;100.00;149149.69;5019332;28;19913;-80
2022/07/14 09:06:32;;;;;;;;;;;;;;;25.41;100.00;149102.16;5018072;28;19920;-82
2022/07/14 09:08:58;;;;;;;;;;;;;;;25.14;100.00;149033.97;5036674;28;19920;-83
2022/07/14 09:11:24;;;;;;;;;;;;;;;24.50;100.00;148874.59;5035665;28;19913;-81
2022/07/14 09:13:51;;;;;;;;;;;;;;;24.80;100.00;148949.19;5038959;28;20466;-82
2022/07/14 09:16:23;;;;;;;;;;;;;;;25.35;100.00;149088.00;5023531;28;19918;-82
2022/07/14 09:19:08;;;;;;;;;;;;;;;24.96;100.00;148989.00;5016324;28;19975;-81
2022/07/14 09:21:34;;;;;;;;;;;;;;;25.47;100.00;149116.31;5017640;28;19913;-80
2022/07/14 09:24:00;;;;;;;;;;;;;;;25.42;100.00;149106.00;5016666;28;19963;-81
2022/07/14 09:26:25;;;;;;;;;;;;;;;25.77;100.00;149193.41;5023566;28;19913;-81
2022/07/14 09:28:51;;;;;;;;;;;;;;;25.52;100.00;149129.16;5010708;28;19925;-80
2022/07/14 09:31:34;;;;;;;;;;;;;;;25.36;100.00;149090.56;5014352;28;20336;-80
2022/07/14 09:34:05;;;;;;;;;;;;;;;25.35;100.00;149088.00;5016188;28;19993;-80
2022/07/14 09:36:32;;;;;;;;;;;;;;;24.86;100.00;148965.88;4999259;28;20335;-81
2022/07/14 09:39:07;;;;;;;;;;;;;;;25.82;100.00;149204.97;5015735;28;19971;-80
2022/07/14 09:41:36;;;;;;;;;;;;;;;25.68;100.00;149170.25;5030284;28;19913;-81
2022/07/14 09:44:10;;;;;;;;;;;;;;;25.75;100.00;149188.25;5017775;28;19917;-80
2022/07/14 09:46:42;;;;;;;;;;;;;;;25.96;100.00;149241.00;5016810;28;19913;-80
2022/07/14 09:49:08;;;;;;;;;;;;;;;25.76;100.00;149189.53;5001181;28;19988;-81
2022/07/14 09:51:33;;;;;;;;;;;;;;;24.94;100.00;148985.16;5033095;28;19944;-80
2022/07/14 09:53:59;;;;;;;;;;;;;;;24.96;100.00;148989.00;5020164;28;20362;-80
2022/07/14 09:56:24;;;;;;;;;;;;;;;24.38;100.00;148846.34;5017380;28;19921;-81
2022/07/14 09:58:54;;;;;;;;;;;;;;;24.36;100.00;148839.91;5021225;28;20271;-81
2022/07/14 10:01:20;;;;;;;;;;;;;;;24.07;100.00;148766.75;5017244;28;19963;-81
2022/07/14 10:03:51;;;;;;;;;;;;;;;24.33;100.00;148833.53;5020648;28;19917;-83
2022/07/14 10:06:17;;;;;;;;;;;;;;;24.36;100.00;148841.22;5019242;28;19913;-82
2022/07/14 10:08:49;;;;;;;;;;;;;;;24.14;100.00;148785.97;5030715;28;19913;-81
2022/07/14 10:11:16;;;;;;;;;;;;;;;24.51;100.00;148877.19;5038462;28;19913;-82
2022/07/14 10:13:42;;;;;;;;;;;;;;;25.09;100.00;149022.41;5025747;28;19917;-82
2022/07/14 10:16:08;;;;;;;;;;;;;;;25.06;100.00;149016.00;5024848;28;19917;-82
2022/07/14 10:18:33;;;;;;;;;;;;;;;24.12;100.00;148779.56;5007130;28;20019;-81
2022/07/14 10:21:00;;;;;;;;;;;;;;;23.90;100.00;148725.63;5010377;28;19925;-82
2022/07/14 10:23:27;;;;;;;;;;;;;;;24.60;100.00;148899.09;5010277;28;20322;-80
2022/07/14 10:25:53;;;;;;;;;;;;;;;25.05;100.00;149013.41;4981245;28;20370;-82
2022/07/14 10:28:19;;;;;;;;;;;;;;;25.28;100.00;149069.97;5003147;28;20320;-82
2022/07/14 10:31:03;;;;;;;;;;;;;;;25.17;100.00;149041.69;5033143;28;19970;-81
2022/07/14 10:33:35;;;;;;;;;;;;;;;25.29;100.00;149071.31;5034774;28;19971;-81
2022/07/14 10:36:19;;;;;;;;;;;;;;;25.46;100.00;149115.00;5010154;28;20377;-81
2022/07/14 10:39:12;;;;;;;;;;;;;;;25.43;100.00;149108.59;4995014;28;19924;-81
2022/07/14 10:41:40;;;;;;;;;;;;;;;24.94;100.00;148983.84;4981300;28;19918;-81
2022/07/14 10:44:25;;;;;;;;;;;;;;;25.19;100.00;149046.84;5015019;28;19984;-82
2022/07/14 10:47:04;;;;;;;;;;;;;;;24.96;100.00;148990.28;4997767;28;19984;-81
2022/07/14 10:49:29;;;;;;;;;;;;;;;25.00;100.00;148999.25;4997513;28;20338;-81
2022/07/14 10:51:55;;;;;;;;;;;;;;;24.69;100.00;148923.47;5001419;28;19957;-81
2022/07/14 10:54:28;;;;;;;;;;;;;;;25.08;100.00;149019.84;5000623;28;19979;-82
2022/07/14 10:57:12;;;;;;;;;;;;;;;23.70;100.00;148675.50;5008974;28;20278;-82
2022/07/14 10:59:38;;;;;;;;;;;;;;;24.36;100.00;148841.22;5027412;28;20362;-82
2022/07/14 11:02:13;;;;;;;;;;;;;;;24.66;100.00;148915.78;4998101;28;19913;-81
2022/07/14 11:05:12;;;;;;;;;;;;;;;24.34;100.00;148834.78;4989334;28;20115;-82
2022/07/14 11:07:38;;;;;;;;;;;;;;;24.45;100.00;148861.75;5031225;28;19928;-82
2022/07/14 11:10:05;;;;;;;;;;;;;;;24.49;100.00;148873.31;5031179;28;20041;-82
2022/07/14 11:12:30;;;;;;;;;;;;;;;24.21;100.00;148802.69;5034922;28;19913;-82
2022/07/14 11:14:55;;;;;;;;;;;;;;;24.34;100.00;148834.78;5027450;28;19917;-82
2022/07/14 11:17:30;;;;;;;;;;;;;;;24.42;100.00;148854.06;5040519;28;20396;-81
2022/07/14 11:19:55;;;;;;;;;;;;;;;24.62;100.00;148905.47;5046999;28;19909;-83
2022/07/14 11:22:21;;;;;;;;;;;;;;;24.90;100.00;148974.84;5022344;28;19916;-81
2022/07/14 11:24:47;;;;;;;;;;;;;;;24.93;100.00;148982.56;5022996;28;19909;-82
2022/07/14 11:27:29;;;;;;;;;;;;;;;24.83;100.00;148956.91;5039844;28;20420;-82
2022/07/14 11:29:58;;;;;;;;;;;;;;;24.35;100.00;148838.63;5019977;28;19923;-81
2022/07/14 11:32:34;;;;;;;;;;;;;;;24.35;100.00;148838.63;5023539;28;19913;-82
2022/07/14 11:38:04;;;;;;;;;;;;;;;24.51;100.00;148877.19;5035649;28;20383;-81
2022/07/14 11:40:49;;;;;;;;;;;;;;;24.49;100.00;148873.31;5017134;28;19976;-81
2022/07/14 11:43:30;;;;;;;;;;;;;;;25.03;100.00;149008.28;5035158;28;19960;-82
2022/07/14 11:46:00;;;;;;;;;;;;;;;25.43;100.00;149107.28;5035446;28;19913;-81
2022/07/14 11:48:30;;;;;;;;;;;;;;;25.48;100.00;149118.84;5017204;28;20280;-83
2022/07/14 11:51:06;;;;;;;;;;;;;;;25.24;100.00;149059.69;5016665;28;20557;-81
2022/07/14 11:53:37;;;;;;;;;;;;;;;25.35;100.00;149086.72;5016327;28;19943;-81
2022/07/14 11:56:03;;;;;;;;;;;;;;;25.42;100.00;149104.75;5016691;28;19913;-82
2022/07/14 11:58:31;;;;;;;;;;;;;;;25.71;100.00;149176.69;5032623;28;19913;-82
2022/07/14 12:00:57;;;;;;;;;;;;;;;24.89;100.00;148973.59;5015679;28;19917;-82
2022/07/14 12:03:40;;;;;;;;;;;;;;;24.81;100.00;148953.06;5015534;28;19923;-81
2022/07/14 12:06:05;;;;;;;;;;;;;;;25.01;100.00;149003.13;5033599;28;20020;-81
2022/07/14 12:08:32;;;;;;;;;;;;;;;24.58;100.00;148895.22;5029096;28;19956;-81
2022/07/14 12:11:08;;;;;;;;;;;;;;;24.48;100.00;148870.75;5031918;28;20350;-82
2022/07/14 12:13:55;;;;;;;;;;;;;;;24.34;100.00;148836.06;5015214;28;20020;-80
2022/07/14 12:16:21;;;;;;;;;;;;;;;24.28;100.00;148820.66;5013385;28;19918;-81
2022/07/14 12:18:49;;;;;;;;;;;;;;;24.54;100.00;148886.16;5013658;28;19920;-81
2022/07/14 12:21:14;;;;;;;;;;;;;;;24.49;100.00;148872.06;5012813;28;19914;-81
2022/07/14 12:23:54;;;;;;;;;;;;;;;24.47;100.00;148868.22;5012569;28;19925;-81
2022/07/14 12:26:21;;;;;;;;;;;;;;;24.08;100.00;148770.56;5010808;28;19913;-80
2022/07/14 12:28:54;;;;;;;;;;;;;;;24.13;100.00;148782.09;5012754;28;19961;-79
2022/07/14 12:31:19;;;;;;;;;;;;;;;24.26;100.00;148814.25;5012114;28;20289;-81
2022/07/14 12:33:48;;;;;;;;;;;;;;;24.37;100.00;148843.75;5012408;28;19921;-82
2022/07/14 12:36:15;;;;;;;;;;;;;;;24.31;100.00;148827.09;5012207;28;19914;-81
2022/07/14 12:38:41;;;;;;;;;;;;;;;23.79;100.00;148698.63;5010077;28;20011;-82
2022/07/14 12:41:07;;;;;;;;;;;;;;;23.91;100.00;148728.22;5029286;28;19921;-81
2022/07/14 12:43:40;;;;;;;;;;;;;;;24.05;100.00;148762.91;5037468;28;19913;-82